Time;durP1;ratioP1;P1;durP2;ratioP2;P2;SDS_P1;SDS_P2;PMS_P1;PMS_P2;Temp;Humidity;BMP_temperature;BMP_pressure;BME280_temperature;BME280_humidity;BME280_pressure;Samples;Min_cycle;Max_cycle;Signal;HPM_P1;HPM_P2
2021/04/14 00:02:04;;;;;;;1.38;1.27;;;24.40;57.70;;;;;;5126787;28;20034;-35
2021/04/14 00:04:30;;;;;;;;;;;24.40;58.30;;;;;;5108695;28;20036;-35
2021/04/14 00:06:58;;;;;;;1.92;1.52;;;24.40;58.30;;;;;;5126229;28;19910;-35
2021/04/14 00:09:25;;;;;;;1.65;1.52;;;24.40;57.80;;;;;;5110593;27;20088;-35
2021/04/14 00:11:51;;;;;;;2.08;1.55;;;24.40;57.80;;;;;;5121658;27;20051;-35
2021/04/14 00:14:17;;;;;;;1.67;1.50;;;24.40;57.80;;;;;;5100439;28;20039;-35
2021/04/14 00:16:43;;;;;;;1.85;1.50;;;24.40;57.70;;;;;;5126261;28;20027;-35
2021/04/14 00:19:10;;;;;;;1.45;1.35;;;24.40;57.60;;;;;;5125944;27;20024;-35
2021/04/14 00:21:36;;;;;;;1.73;1.52;;;24.40;57.60;;;;;;5126164;28;20393;-35
2021/04/14 00:24:02;;;;;;;1.92;1.63;;;24.40;57.60;;;;;;5126108;28;20035;-35
2021/04/14 00:26:28;;;;;;;1.60;1.50;;;24.40;57.60;;;;;;5126018;28;20051;-35
2021/04/14 00:28:55;;;;;;;1.70;1.60;;;24.30;57.50;;;;;;5107168;28;20045;-35
2021/04/14 00:31:35;;;;;;;1.42;1.33;;;24.40;57.40;;;;;;5107563;28;20027;-35
2021/04/14 00:34:12;;;;;;;1.50;1.40;;;24.30;57.40;;;;;;5092292;28;20020;-35
2021/04/14 00:36:38;;;;;;;2.47;1.67;;;24.30;57.40;;;;;;5126019;28;20019;-35
2021/04/14 00:39:05;;;;;;;1.55;1.30;;;24.30;57.50;;;;;;5125689;28;20264;-35
2021/04/14 00:41:32;;;;;;;1.80;1.60;;;24.30;57.50;;;;;;5144661;27;20023;-35
2021/04/14 00:43:58;;;;;;;1.50;1.30;;;24.30;57.40;;;;;;5146283;27;20023;-35
2021/04/14 00:46:24;;;;;;;1.60;1.50;;;24.30;57.50;;;;;;5143414;27;20038;-35
2021/04/14 00:48:50;;;;;;;1.87;1.67;;;24.30;57.50;;;;;;5128802;27;20028;-35
2021/04/14 00:51:18;;;;;;;1.92;1.70;;;24.30;57.50;;;;;;5125674;28;20355;-35
2021/04/14 00:53:45;;;;;;;2.08;1.75;;;24.20;57.50;;;;;;5125524;28;20035;-35
2021/04/14 00:56:12;;;;;;;1.60;1.40;;;24.20;57.50;;;;;;5106901;28;20024;-34
2021/04/14 00:58:38;;;;;;;1.75;1.65;;;24.20;57.60;;;;;;5125195;28;20474;-35
2021/04/14 01:01:04;;;;;;;1.83;1.63;;;24.20;57.60;;;;;;5125263;28;20047;-35
2021/04/14 01:03:33;;;;;;;2.10;1.90;;;24.20;57.70;;;;;;5125272;28;20567;-35
2021/04/14 01:06:04;;;;;;;1.75;1.65;;;24.20;57.80;;;;;;5125145;28;20039;-35
2021/04/14 01:08:30;;;;;;;2.47;1.90;;;24.20;58.00;;;;;;5125145;28;20024;-35
2021/04/14 01:10:57;;;;;;;1.80;1.70;;;24.20;58.10;;;;;;5137270;27;20158;-35
2021/04/14 01:13:23;;;;;;;2.22;1.73;;;24.10;58.20;;;;;;5125008;28;20031;-35
2021/04/14 01:15:50;;;;;;;2.28;1.80;;;24.10;58.20;;;;;;5125040;28;20039;-35
2021/04/14 01:18:27;;;;;;;2.47;1.92;;;24.10;58.30;;;;;;5124746;28;20024;-35
2021/04/14 01:20:54;;;;;;;2.22;1.65;;;24.10;58.40;;;;;;5125104;28;20027;-35
2021/04/14 01:23:20;;;;;;;1.90;1.70;;;24.10;58.40;;;;;;5119253;27;20079;-35
2021/04/14 01:25:47;;;;;;;1.77;1.67;;;24.10;58.40;;;;;;5127025;27;20043;-35
2021/04/14 01:28:21;;;;;;;2.40;2.00;;;24.10;58.40;;;;;;5160982;27;20428;-35
2021/04/14 01:30:48;;;;;;;2.42;1.85;;;24.00;58.30;;;;;;5145285;27;20259;-35
2021/04/14 01:33:15;;;;;;;2.25;1.67;;;24.00;58.20;;;;;;5145324;27;20467;-35
2021/04/14 01:35:41;;;;;;;3.05;1.90;;;24.00;58.30;;;;;;5145099;27;20038;-34
2021/04/14 01:38:07;;;;;;;3.10;2.00;;;24.00;58.30;;;;;;5145315;27;20028;-35
2021/04/14 01:40:34;;;;;;;2.80;2.03;;;24.00;58.00;;;;;;5131489;27;20268;-36
2021/04/14 01:43:00;;;;;;;3.80;2.20;;;24.00;58.10;;;;;;5124438;28;20034;-35
2021/04/14 01:45:29;;;;;;;2.10;1.90;;;24.00;58.00;;;;;;5124481;28;20039;-35
2021/04/14 01:47:56;;;;;;;3.03;1.95;;;23.90;58.00;;;;;;5124409;28;20082;-34
2021/04/14 01:50:22;;;;;;;2.80;2.13;;;24.00;58.00;;;;;;5124229;28;20032;-35
2021/04/14 01:52:50;;;;;;;2.80;2.20;;;23.90;57.80;;;;;;5130494;27;20045;-35
2021/04/14 01:55:17;;;;;;;2.33;1.98;;;23.90;57.70;;;;;;5144948;27;20755;-35
2021/04/14 01:57:46;;;;;;;2.73;2.10;;;23.90;57.60;;;;;;5160560;27;20058;-35
2021/04/14 02:00:25;;;;;;;3.17;1.88;;;23.90;57.50;;;;;;5144337;27;20278;-34
2021/04/14 02:02:52;;;;;;;3.13;2.38;;;23.80;57.40;;;;;;5144773;27;20030;-35
2021/04/14 02:05:20;;;;;;;2.10;1.90;;;23.80;57.10;;;;;;5144398;27;20035;-34
2021/04/14 02:07:46;;;;;;;2.72;2.00;;;23.80;57.10;;;;;;5126587;27;20023;-35
2021/04/14 02:10:13;;;;;;;2.65;2.45;;;23.80;56.90;;;;;;5133661;27;20027;-36
2021/04/14 02:12:39;;;;;;;3.17;2.33;;;23.80;57.20;;;;;;5142513;27;20073;-35
2021/04/14 02:15:07;;;;;;;2.80;2.17;;;23.80;57.00;;;;;;5123894;28;20478;-35
2021/04/14 02:17:33;;;;;;;2.55;1.90;;;23.80;57.20;;;;;;5123908;28;20023;-35
2021/04/14 02:19:59;;;;;;;2.85;2.00;;;23.70;56.90;;;;;;5123288;28;20087;-35
2021/04/14 02:22:26;;;;;;;2.83;2.17;;;23.70;57.00;;;;;;5123791;28;20057;-35
2021/04/14 02:24:52;;;;;;;2.42;1.83;;;23.70;56.80;;;;;;5123487;28;20099;-35
2021/04/14 02:27:18;;;;;;;2.88;2.13;;;23.70;56.90;;;;;;5123677;27;20035;-35
2021/04/14 02:29:44;;;;;;;2.58;2.30;;;23.70;57.00;;;;;;5123130;28;20035;-34
2021/04/14 02:32:11;;;;;;;4.50;1.95;;;23.70;56.70;;;;;;5123542;27;20081;-36
2021/04/14 02:34:37;;;;;;;2.17;1.80;;;23.60;56.80;;;;;;5123222;28;20024;-35
2021/04/14 02:37:03;;;;;;;3.00;2.10;;;23.60;56.80;;;;;;5123395;28;20049;-35
2021/04/14 02:39:29;;;;;;;2.40;2.10;;;23.60;56.70;;;;;;5105467;27;20064;-35
2021/04/14 02:41:55;;;;;;;1.98;1.75;;;23.60;56.60;;;;;;5123072;28;20023;-34
2021/04/14 02:44:22;;;;;;;2.28;2.08;;;23.60;56.50;;;;;;5122958;28;20047;-35
2021/04/14 02:46:48;;;;;;;2.72;2.20;;;23.60;56.30;;;;;;5123150;28;20761;-35
2021/04/14 02:49:14;;;;;;;2.50;2.30;;;23.60;56.30;;;;;;5123084;28;20031;-35
2021/04/14 02:51:40;;;;;;;2.10;1.90;;;23.50;56.20;;;;;;5122989;28;20054;-35
2021/04/14 02:54:07;;;;;;;2.30;2.10;;;23.50;56.20;;;;;;5142666;27;20072;-34
2021/04/14 02:56:33;;;;;;;3.67;2.10;;;23.50;56.20;;;;;;5141946;28;20023;-34
2021/04/14 02:59:00;;;;;;;3.20;2.28;;;23.50;56.30;;;;;;5143452;28;20510;-35
2021/04/14 03:01:27;;;;;;;2.53;2.00;;;23.50;56.30;;;;;;5104858;28;20048;-35
2021/04/14 03:03:53;;;;;;;2.83;2.38;;;23.40;56.30;;;;;;5123041;28;20028;-34
2021/04/14 03:06:20;;;;;;;3.22;2.30;;;23.40;56.50;;;;;;5122667;28;20124;-35
2021/04/14 03:08:46;;;;;;;2.67;2.03;;;23.40;56.30;;;;;;5123191;28;20032;-35
2021/04/14 03:11:12;;;;;;;2.23;2.03;;;23.40;56.50;;;;;;5135014;28;20400;-35
2021/04/14 03:13:39;;;;;;;2.47;2.28;;;23.30;56.40;;;;;;5104859;28;20294;-35
2021/04/14 03:16:05;;;;;;;2.47;2.28;;;23.30;56.40;;;;;;5123034;28;20027;-35
2021/04/14 03:18:31;;;;;;;2.70;2.30;;;23.30;56.50;;;;;;5122982;28;20039;-35
2021/04/14 03:20:57;;;;;;;2.50;2.30;;;23.30;56.50;;;;;;5122805;28;20038;-36
2021/04/14 03:23:23;;;;;;;2.13;1.92;;;23.30;56.50;;;;;;5136378;28;20043;-35
2021/04/14 03:25:50;;;;;;;3.40;2.35;;;23.20;56.50;;;;;;5143354;28;20627;-35
2021/04/14 03:28:16;;;;;;;2.65;2.35;;;23.20;56.60;;;;;;5143412;28;20030;-35
2021/04/14 03:30:43;;;;;;;3.60;2.25;;;23.20;56.50;;;;;;5128404;28;20032;-34
2021/04/14 03:33:09;;;;;;;3.13;2.38;;;23.20;56.60;;;;;;5122984;28;20028;-34
2021/04/14 03:35:35;;;;;;;3.80;2.35;;;23.20;56.60;;;;;;5122638;28;20036;-35
2021/04/14 03:38:02;;;;;;;2.90;2.35;;;23.20;56.60;;;;;;5132925;28;20030;-35
2021/04/14 03:40:28;;;;;;;3.20;2.53;;;23.10;56.60;;;;;;5113720;28;20708;-34
2021/04/14 03:42:56;;;;;;;3.03;2.73;;;23.10;56.70;;;;;;5103543;28;20285;-35
2021/04/14 03:45:29;;;;;;;3.58;2.47;;;23.10;56.70;;;;;;5102355;28;20139;-35
2021/04/14 03:47:55;;;;;;;3.33;2.50;;;23.10;56.70;;;;;;5102349;28;20028;-35
2021/04/14 03:50:21;;;;;;;2.80;2.58;;;23.10;56.70;;;;;;5109510;28;20034;-35
2021/04/14 03:52:49;;;;;;;2.60;2.40;;;23.00;56.80;;;;;;5135129;28;20103;-35
2021/04/14 03:55:16;;;;;;;2.40;2.20;;;23.00;56.80;;;;;;5122833;28;20059;-35
2021/04/14 03:57:42;;;;;;;;;;;23.00;56.80;;;;;;5104464;28;20026;-35
2021/04/14 04:00:09;;;;;;;3.20;2.47;;;23.00;56.90;;;;;;5122524;28;19935;-35
2021/04/14 04:02:35;;;;;;;2.28;2.00;;;23.00;56.90;;;;;;5123427;28;20028;-35
2021/04/14 04:05:01;;;;;;;3.97;2.47;;;22.90;57.00;;;;;;5126277;28;20036;-35
2021/04/14 04:07:28;;;;;;;3.00;2.65;;;22.90;57.00;;;;;;5126486;28;20054;-35
2021/04/14 04:09:54;;;;;;;2.63;2.20;;;22.80;56.90;;;;;;5126473;27;20028;-34
2021/04/14 04:12:20;;;;;;;4.38;2.55;;;22.90;57.10;;;;;;5140249;27;20278;-34
2021/04/14 04:14:51;;;;;;;2.85;2.55;;;22.80;57.00;;;;;;5146546;27;20025;-35
2021/04/14 04:17:18;;;;;;;2.92;2.65;;;22.80;56.90;;;;;;5146794;27;20027;-35
2021/04/14 04:19:44;;;;;;;3.03;2.55;;;22.80;57.00;;;;;;5138612;27;20363;-34
2021/04/14 04:22:11;;;;;;;2.97;2.70;;;22.80;57.00;;;;;;5110418;27;20061;-34
2021/04/14 04:24:37;;;;;;;;;;;22.80;57.20;;;;;;5108250;28;20093;-35
2021/04/14 04:27:04;;;;;;;2.58;2.38;;;22.80;57.00;;;;;;5125720;28;19911;-34
2021/04/14 04:29:30;;;;;;;4.60;2.75;;;22.70;57.20;;;;;;5125880;28;20027;-35
2021/04/14 04:31:56;;;;;;;3.25;2.80;;;22.70;57.10;;;;;;5125641;28;20047;-34
2021/04/14 04:34:22;;;;;;;2.95;2.70;;;22.70;57.10;;;;;;5125755;28;20117;-34
2021/04/14 04:36:50;;;;;;;3.80;2.97;;;22.70;57.20;;;;;;5125848;28;20089;-35
2021/04/14 04:39:16;;;;;;;3.15;2.88;;;22.60;57.20;;;;;;5126966;27;20034;-34
2021/04/14 04:41:43;;;;;;;3.30;3.00;;;22.60;57.20;;;;;;5118663;28;20674;-35
2021/04/14 04:44:09;;;;;;;3.35;2.80;;;22.60;57.30;;;;;;5125415;28;20492;-34
2021/04/14 04:46:35;;;;;;;3.65;3.30;;;22.60;57.30;;;;;;5107296;28;20023;-35
2021/04/14 04:49:02;;;;;;;3.50;2.97;;;22.60;57.30;;;;;;5125583;28;20053;-34
2021/04/14 04:51:29;;;;;;;4.35;2.70;;;22.50;57.30;;;;;;5107126;28;20019;-34
2021/04/14 04:53:55;;;;;;;3.03;2.75;;;22.50;57.40;;;;;;5143366;27;20027;-35
2021/04/14 04:56:22;;;;;;;3.35;2.70;;;22.50;57.30;;;;;;5124964;27;20057;-34
2021/04/14 04:58:48;;;;;;;2.85;2.65;;;22.50;57.40;;;;;;5125199;28;20088;-34
2021/04/14 05:01:14;;;;;;;3.58;2.95;;;22.50;57.40;;;;;;5125334;28;20042;-34
2021/04/14 05:03:41;;;;;;;3.10;2.65;;;22.40;57.30;;;;;;5124923;28;20052;-34
2021/04/14 05:06:07;;;;;;;2.83;2.53;;;22.40;57.40;;;;;;5107013;28;20035;-35
2021/04/14 05:08:33;;;;;;;3.40;3.08;;;22.40;57.40;;;;;;5125316;28;20524;-35
2021/04/14 05:10:59;;;;;;;5.10;3.15;;;22.40;57.40;;;;;;5127758;27;20039;-35
2021/04/14 05:13:25;;;;;;;3.70;3.13;;;22.40;57.40;;;;;;5132372;27;20051;-35
2021/04/14 05:15:52;;;;;;;3.20;2.75;;;22.40;57.50;;;;;;5124442;28;20035;-35
2021/04/14 05:18:19;;;;;;;3.22;2.80;;;22.30;57.50;;;;;;5125023;28;20096;-34
2021/04/14 05:20:45;;;;;;;3.50;3.10;;;22.30;57.50;;;;;;5124938;28;20042;-34
2021/04/14 05:23:11;;;;;;;3.30;3.00;;;22.30;57.50;;;;;;5136248;27;20031;-34
2021/04/14 05:25:40;;;;;;;4.25;3.42;;;22.30;57.60;;;;;;5145456;27;20656;-35
2021/04/14 05:28:08;;;;;;;3.38;3.08;;;22.20;57.60;;;;;;5145114;27;20050;-34
2021/04/14 05:30:34;;;;;;;3.05;2.65;;;22.30;57.80;;;;;;5145438;27;20122;-35
2021/04/14 05:33:00;;;;;;;3.60;3.30;;;22.20;57.60;;;;;;5145259;27;20674;-34
2021/04/14 05:35:27;;;;;;;3.72;3.15;;;22.20;57.60;;;;;;5126809;27;20076;-34
2021/04/14 05:37:53;;;;;;;3.78;3.17;;;22.20;57.60;;;;;;5145147;27;20023;-34
2021/04/14 05:40:22;;;;;;;3.38;3.03;;;22.20;57.70;;;;;;5116739;28;20027;-34
2021/04/14 05:42:48;;;;;;;3.58;3.15;;;22.20;57.70;;;;;;5139170;27;20019;-35
2021/04/14 05:45:17;;;;;;;3.80;3.28;;;22.20;57.80;;;;;;5145002;27;20031;-35
2021/04/14 05:47:44;;;;;;;4.07;3.40;;;22.10;57.70;;;;;;5109285;28;20082;-35
2021/04/14 05:50:12;;;;;;;3.97;3.20;;;22.10;57.80;;;;;;5105982;28;20107;-34
2021/04/14 05:52:38;;;;;;;3.50;3.13;;;22.10;57.80;;;;;;5130989;27;20087;-34
2021/04/14 05:55:05;;;;;;;2.83;2.63;;;22.10;57.80;;;;;;5144664;27;20027;-34
2021/04/14 05:57:31;;;;;;;3.60;3.30;;;22.00;57.80;;;;;;5144388;27;20039;-34
2021/04/14 05:59:57;;;;;;;4.28;3.28;;;22.00;57.70;;;;;;5131505;27;20077;-34
2021/04/14 06:02:23;;;;;;;3.70;3.33;;;22.00;57.80;;;;;;5123921;28;20020;-35
2021/04/14 06:04:52;;;;;;;3.17;2.95;;;22.00;57.90;;;;;;5124082;28;20039;-35
2021/04/14 06:07:18;;;;;;;3.35;3.05;;;22.00;57.90;;;;;;5124059;28;20019;-34
2021/04/14 06:09:44;;;;;;;3.60;3.30;;;21.90;57.80;;;;;;5123997;28;20107;-35
2021/04/14 06:12:11;;;;;;;4.30;3.22;;;22.00;58.00;;;;;;5127629;27;20135;-34
2021/04/14 06:14:37;;;;;;;3.40;3.10;;;21.90;58.00;;;;;;5103151;28;20028;-35
2021/04/14 06:17:04;;;;;;;3.92;3.15;;;21.90;58.10;;;;;;5103455;28;20028;-35
2021/04/14 06:19:30;;;;;;;3.70;3.10;;;21.90;58.10;;;;;;5116504;28;20091;-35
2021/04/14 06:21:56;;;;;;;3.60;3.30;;;21.80;58.00;;;;;;5124581;27;20031;-35
2021/04/14 06:24:24;;;;;;;3.50;3.13;;;21.80;58.00;;;;;;5144009;27;20046;-34
2021/04/14 06:26:54;;;;;;;4.20;3.80;;;21.80;58.10;;;;;;5143961;27;20034;-35
2021/04/14 06:29:20;;;;;;;5.30;3.70;;;21.80;58.10;;;;;;5143997;27;20059;-34
2021/04/14 06:31:46;;;;;;;3.95;3.38;;;21.80;58.10;;;;;;5144177;27;20031;-35
2021/04/14 06:34:22;;;;;;;5.82;3.38;;;21.80;58.10;;;;;;5143901;27;20039;-34
2021/04/14 06:36:49;;;;;;;4.15;3.15;;;21.70;58.00;;;;;;5126400;27;20030;-35
2021/04/14 06:39:16;;;;;;;4.43;3.65;;;21.70;58.20;;;;;;5143490;27;20060;-34
2021/04/14 06:42:00;;;;;;;3.15;2.83;;;21.70;58.20;;;;;;5132207;27;20035;-34
2021/04/14 06:44:45;;;;;;;3.35;3.05;;;21.70;58.20;;;;;;5111760;27;20031;-35
2021/04/14 06:47:51;;;;;;;3.65;3.20;;;21.60;58.20;;;;;;5144022;27;20023;-34
2021/04/14 06:50:39;;;;;;;4.05;3.53;;;21.60;58.20;;;;;;5112727;28;20107;-34
2021/04/14 06:53:05;;;;;;;3.55;3.00;;;21.60;58.40;;;;;;5118358;27;20023;-34
2021/04/14 06:55:47;;;;;;;4.07;3.67;;;21.60;58.20;;;;;;5143814;27;20582;-34
2021/04/14 06:58:19;;;;;;;4.90;3.53;;;21.60;58.30;;;;;;5109768;28;20094;-34
2021/04/14 07:00:49;;;;;;;4.15;3.55;;;21.60;58.30;;;;;;5105000;27;20031;-34
2021/04/14 07:03:22;;;;;;;4.38;3.40;;;21.50;58.30;;;;;;5124874;28;20110;-34
2021/04/14 07:05:52;;;;;;;4.07;3.70;;;21.50;58.60;;;;;;5108723;28;20112;-34
2021/04/14 07:08:23;;;;;;;3.70;3.30;;;21.50;58.40;;;;;;5125292;28;20070;-34
2021/04/14 07:10:51;;;;;;;4.43;3.28;;;21.50;58.70;;;;;;5130938;28;20031;-34
2021/04/14 07:13:17;;;;;;;4.15;3.67;;;21.50;58.50;;;;;;5123536;28;20055;-34
2021/04/14 07:15:43;;;;;;;4.10;3.47;;;21.50;58.60;;;;;;5104474;28;20027;-34
2021/04/14 07:18:23;;;;;;;4.28;3.25;;;21.50;58.60;;;;;;5123188;28;20477;-34
2021/04/14 07:21:26;;;;;;;4.50;3.45;;;21.40;58.80;;;;;;5105137;28;20035;-34
2021/04/14 07:24:12;;;;;;;4.15;3.75;;;21.40;58.80;;;;;;5103660;28;20057;-35
2021/04/14 07:27:01;;;;;;;3.30;3.00;;;21.40;58.70;;;;;;5107929;28;20039;-34
2021/04/14 07:29:36;;;;;;;4.20;3.80;;;21.40;58.80;;;;;;5106199;28;20020;-34
2021/04/14 07:32:12;;;;;;;4.20;3.80;;;21.40;58.80;;;;;;5122784;28;20560;-35
2021/04/14 07:35:03;;;;;;;3.97;3.50;;;21.30;58.80;;;;;;5122849;28;20046;-34
2021/04/14 07:37:42;;;;;;;4.43;3.90;;;21.30;58.90;;;;;;5132227;27;20038;-35
2021/04/14 07:40:20;;;;;;;4.07;3.67;;;21.30;58.90;;;;;;5101746;27;20099;-34
2021/04/14 07:43:13;;;;;;;4.53;4.07;;;21.30;58.80;;;;;;5110790;28;20033;-34
2021/04/14 07:45:39;;;;;;;4.32;3.80;;;21.30;58.90;;;;;;5110945;28;20036;-34
2021/04/14 07:48:08;;;;;;;4.72;3.60;;;21.20;58.90;;;;;;5125707;28;20027;-35
2021/04/14 07:50:58;;;;;;;4.20;3.80;;;21.20;59.10;;;;;;5126697;28;20031;-34
2021/04/14 07:53:36;;;;;;;4.03;3.63;;;21.20;59.10;;;;;;5139858;27;20020;-35
2021/04/14 07:56:06;;;;;;;4.15;3.65;;;21.10;58.90;;;;;;5147126;27;20076;-34
2021/04/14 07:58:33;;;;;;;4.00;3.60;;;21.10;58.90;;;;;;5146587;27;20027;-34
2021/04/14 08:01:17;;;;;;;4.43;3.88;;;21.10;59.00;;;;;;5146916;27;20044;-35
2021/04/14 08:03:44;;;;;;;3.75;3.35;;;21.10;59.10;;;;;;5128743;27;20067;-35
2021/04/14 08:06:30;;;;;;;4.35;3.95;;;21.10;59.10;;;;;;5107969;28;20111;-34
2021/04/14 08:08:56;;;;;;;4.43;3.85;;;21.00;59.00;;;;;;5125423;28;20087;-34
2021/04/14 08:11:33;;;;;;;5.07;4.22;;;21.00;59.20;;;;;;5132039;27;20054;-34
2021/04/14 08:14:33;;;;;;;4.10;3.70;;;21.00;59.10;;;;;;5120430;28;20026;-34
2021/04/14 08:17:10;;;;;;;3.97;3.58;;;21.00;59.10;;;;;;5092627;28;20035;-34
2021/04/14 08:19:37;;;;;;;3.90;3.50;;;20.90;59.30;;;;;;5089813;28;20592;-34
2021/04/14 08:22:14;;;;;;;4.20;3.80;;;20.90;59.20;;;;;;5090800;28;20031;-34
2021/04/14 08:25:16;;;;;;;4.73;3.63;;;21.00;59.30;;;;;;5125777;28;20039;-35
2021/04/14 08:27:47;;;;;;;6.18;3.78;;;20.90;59.10;;;;;;5042239;28;20025;-34
2021/04/14 08:30:19;;;;;;;5.15;4.20;;;20.90;59.40;;;;;;5041547;28;20041;-34
2021/04/14 08:32:46;;;;;;;4.25;3.85;;;20.90;59.30;;;;;;5042397;28;20092;-34
2021/04/14 08:35:36;;;;;;;4.15;3.75;;;20.90;59.30;;;;;;5042469;28;20105;-34
2021/04/14 08:38:16;;;;;;;5.05;3.60;;;20.80;59.30;;;;;;5011859;28;20034;-34
2021/04/14 08:40:48;;;;;;;4.13;3.72;;;20.90;59.50;;;;;;5054353;28;20028;-34
2021/04/14 08:43:26;;;;;;;6.15;3.97;;;20.80;59.40;;;;;;5025811;28;20037;-34
2021/04/14 08:45:52;;;;;;;;;;;20.80;59.40;;;;;;5025934;28;20041;-34
2021/04/14 08:48:28;;;;;;;3.97;3.63;;;20.80;59.50;;;;;;5041371;28;19923;-34
2021/04/14 08:50:55;;;;;;;4.30;3.90;;;20.70;59.40;;;;;;5026023;28;20060;-34
2021/04/14 08:53:25;;;;;;;5.80;3.92;;;20.70;59.40;;;;;;5038458;28;20033;-34
2021/04/14 08:55:51;;;;;;;4.30;3.80;;;20.70;59.50;;;;;;5044450;28;20072;-34
2021/04/14 08:58:18;;;;;;;4.03;3.67;;;20.70;59.60;;;;;;5043796;28;20048;-34
2021/04/14 09:00:45;;;;;;;4.40;4.00;;;20.70;59.50;;;;;;5031752;28;20049;-34
2021/04/14 09:03:12;;;;;;;5.70;4.38;;;20.70;59.70;;;;;;5104673;28;20032;-34
2021/04/14 09:05:38;;;;;;;4.63;4.03;;;20.60;59.50;;;;;;5089920;28;20067;-34
2021/04/14 09:08:08;;;;;;;5.05;4.40;;;20.60;59.60;;;;;;5106635;28;20118;-35
2021/04/14 09:10:42;;;;;;;5.03;3.83;;;20.70;59.60;;;;;;5101540;27;20082;-34
2021/04/14 09:13:12;;;;;;;4.97;4.03;;;20.60;59.60;;;;;;5086202;28;20595;-34
2021/04/14 09:15:54;;;;;;;4.72;4.30;;;20.60;59.70;;;;;;5115317;28;20027;-34
2021/04/14 09:18:35;;;;;;;6.07;4.63;;;20.60;59.60;;;;;;5106920;28;20023;-34
2021/04/14 09:21:15;;;;;;;4.68;3.95;;;20.50;59.70;;;;;;5124256;28;20059;-35
2021/04/14 09:23:54;;;;;;;4.35;3.65;;;20.50;59.70;;;;;;5121900;27;20031;-34
2021/04/14 09:26:35;;;;;;;4.82;3.85;;;20.50;59.70;;;;;;5118483;28;20084;-34
2021/04/14 09:29:01;;;;;;;5.82;4.13;;;20.50;59.70;;;;;;5124126;28;20039;-34
2021/04/14 09:31:42;;;;;;;4.80;4.18;;;20.50;59.90;;;;;;5124688;28;20031;-35
2021/04/14 09:34:34;;;;;;;4.70;3.78;;;20.40;59.70;;;;;;5106788;28;20023;-34
2021/04/14 09:37:17;;;;;;;5.10;3.65;;;20.40;59.80;;;;;;5124040;28;20070;-34
2021/04/14 09:39:43;;;;;;;5.28;3.92;;;20.40;59.80;;;;;;5128589;27;20523;-34
2021/04/14 09:42:25;;;;;;;5.35;4.25;;;20.40;59.80;;;;;;5131643;27;20024;-34
2021/04/14 09:45:12;;;;;;;4.30;3.78;;;20.40;59.80;;;;;;5143041;27;20073;-34
2021/04/14 09:47:38;;;;;;;4.78;3.97;;;20.30;59.90;;;;;;5130120;27;20140;-34
2021/04/14 09:50:40;;;;;;;5.35;4.20;;;20.30;59.80;;;;;;5144486;27;20038;-34
2021/04/14 09:53:19;;;;;;;4.50;3.72;;;20.30;59.70;;;;;;5050031;28;20040;-34
2021/04/14 09:55:54;;;;;;;4.43;4.03;;;20.30;59.90;;;;;;5023547;28;20072;-34
2021/04/14 09:59:02;;;;;;;4.30;3.83;;;20.30;60.00;;;;;;5008916;28;20108;-35
2021/04/14 10:01:30;;;;;;;5.40;4.30;;;20.30;59.90;;;;;;5026811;28;20756;-34
2021/04/14 10:04:11;;;;;;;4.60;4.18;;;20.20;59.90;;;;;;5023801;28;20085;-34
2021/04/14 10:06:37;;;;;;;4.32;3.80;;;20.20;60.10;;;;;;5024064;28;20536;-34
2021/04/14 10:09:06;;;;;;;4.97;4.22;;;20.20;60.10;;;;;;5040219;28;20025;-34
2021/04/14 10:11:37;;;;;;;5.47;4.05;;;20.20;60.10;;;;;;5035381;28;20068;-34
2021/04/14 10:14:19;;;;;;;3.92;3.53;;;20.20;60.00;;;;;;5039887;28;20045;-34
2021/04/14 10:16:46;;;;;;;4.45;3.83;;;20.20;59.90;;;;;;5040314;28;20034;-34
2021/04/14 10:19:15;;;;;;;5.05;4.25;;;20.20;60.10;;;;;;5040198;28;20037;-34
2021/04/14 10:21:41;;;;;;;4.45;3.70;;;20.10;60.00;;;;;;5039867;28;20063;-34
2021/04/14 10:24:11;;;;;;;6.78;4.28;;;20.10;60.10;;;;;;5075756;28;20088;-34
2021/04/14 10:26:39;;;;;;;4.85;4.35;;;20.10;60.20;;;;;;5085989;27;20043;-34
2021/04/14 10:29:09;;;;;;;4.80;4.13;;;20.00;60.10;;;;;;5143880;27;20030;-34
2021/04/14 10:31:36;;;;;;;4.75;4.28;;;20.00;60.20;;;;;;5143760;27;20038;-33
2021/04/14 10:34:11;;;;;;;5.50;3.95;;;20.00;60.20;;;;;;5125768;27;20102;-35
2021/04/14 10:36:42;;;;;;;5.65;4.68;;;20.00;60.30;;;;;;5143848;27;20106;-34
2021/04/14 10:39:17;;;;;;;4.85;4.07;;;20.00;60.30;;;;;;5143775;27;20031;-34
2021/04/14 10:41:44;;;;;;;4.60;4.00;;;20.00;60.30;;;;;;5120696;27;20030;-34
2021/04/14 10:44:15;;;;;;;4.50;3.95;;;20.00;60.30;;;;;;5125213;28;20042;-34
2021/04/14 10:46:41;;;;;;;4.88;4.25;;;20.00;60.30;;;;;;5143929;27;20122;-35
2021/04/14 10:49:22;;;;;;;4.82;4.32;;;19.90;60.30;;;;;;5120363;27;20031;-34
2021/04/14 10:51:51;;;;;;;5.60;4.70;;;19.90;60.30;;;;;;5143436;27;20455;-35
2021/04/14 10:54:18;;;;;;;4.78;4.32;;;19.90;60.30;;;;;;5104086;28;20031;-33
2021/04/14 10:56:44;;;;;;;4.35;3.95;;;19.90;60.30;;;;;;5088027;28;20031;-34
2021/04/14 10:59:13;;;;;;;4.38;3.90;;;19.90;60.40;;;;;;5122651;28;20784;-34
2021/04/14 11:01:44;;;;;;;5.03;4.47;;;19.80;60.40;;;;;;5104326;28;20090;-34
2021/04/14 11:04:20;;;;;;;4.88;4.10;;;19.80;60.60;;;;;;5122815;28;20031;-34
2021/04/14 11:06:51;;;;;;;5.43;4.80;;;19.80;60.40;;;;;;5123011;28;20035;-34
2021/04/14 11:09:18;;;;;;;5.80;4.20;;;19.80;60.40;;;;;;5106324;28;20030;-34
2021/04/14 11:11:44;;;;;;;;;;;19.80;60.50;;;;;;5116843;28;20551;-34
2021/04/14 11:14:10;;;;;;;6.15;3.95;;;19.80;60.50;;;;;;5108824;28;19908;-34
2021/04/14 11:16:38;;;;;;;5.53;4.20;;;19.70;60.50;;;;;;5108621;28;20083;-34
2021/04/14 11:19:15;;;;;;;4.50;4.05;;;19.70;60.50;;;;;;5108827;28;20417;-35
2021/04/14 11:21:41;;;;;;;5.40;4.30;;;19.70;60.60;;;;;;5108803;28;20458;-33
2021/04/14 11:24:16;;;;;;;6.03;4.22;;;19.80;60.70;;;;;;5128015;27;20081;-34
2021/04/14 11:26:54;;;;;;;4.82;4.05;;;19.70;60.50;;;;;;5147410;27;20027;-34
2021/04/14 11:29:26;;;;;;;5.43;4.47;;;19.70;60.50;;;;;;5128066;27;20034;-34
2021/04/14 11:31:53;;;;;;;6.57;4.30;;;19.70;60.60;;;;;;5147104;27;20487;-34
2021/04/14 11:34:20;;;;;;;;;;;19.60;60.60;;;;;;5147680;27;20056;-34
2021/04/14 11:36:58;;;;;;;5.80;4.10;;;19.60;60.60;;;;;;5147401;27;19907;-34
2021/04/14 11:39:25;;;;;;;5.07;4.13;;;19.60;60.80;;;;;;5144871;27;20047;-34
2021/04/14 11:42:12;;;;;;;5.38;4.32;;;19.60;61.60;;;;;;5108179;28;20563;-34
2021/04/14 11:44:38;;;;;;;5.20;4.13;;;19.60;60.80;;;;;;5105796;28;20047;-34
2021/04/14 11:47:05;;;;;;;6.03;4.32;;;19.50;60.80;;;;;;5108634;27;20030;-34
2021/04/14 11:49:36;;;;;;;4.78;4.28;;;19.50;60.80;;;;;;5106250;28;20055;-34
2021/04/14 11:52:35;;;;;;;5.57;4.45;;;19.50;60.70;;;;;;5090223;27;20016;-34
2021/04/14 11:55:33;;;;;;;4.90;4.13;;;19.50;60.80;;;;;;5126399;28;20032;-34
2021/04/14 11:58:05;;;;;;;6.10;4.75;;;19.50;60.80;;;;;;5107804;28;20035;-34
2021/04/14 12:00:38;;;;;;;5.80;4.45;;;19.50;61.00;;;;;;5107665;28;20038;-34
2021/04/14 12:03:19;;;;;;;5.00;4.07;;;19.50;60.90;;;;;;5125693;28;20031;-34
2021/04/14 12:05:49;;;;;;;4.85;4.35;;;19.50;60.80;;;;;;5126158;28;20080;-34
2021/04/14 12:08:15;;;;;;;5.78;4.10;;;19.40;60.80;;;;;;5125962;28;20030;-34
2021/04/14 12:10:42;;;;;;;4.90;4.20;;;19.50;60.90;;;;;;5138503;27;20091;-34
2021/04/14 12:13:08;;;;;;;5.57;4.28;;;19.40;60.80;;;;;;5125472;28;20046;-34
2021/04/14 12:15:34;;;;;;;5.13;4.43;;;19.40;60.90;;;;;;5125578;28;20032;-34
2021/04/14 12:18:00;;;;;;;4.53;3.83;;;19.40;60.70;;;;;;5126056;28;20055;-34
2021/04/14 12:20:26;;;;;;;5.25;4.38;;;19.40;60.90;;;;;;5125761;28;20027;-34
2021/04/14 12:22:52;;;;;;;5.72;4.35;;;19.40;60.90;;;;;;5134017;27;20023;-34
2021/04/14 12:25:20;;;;;;;7.85;4.82;;;19.40;61.00;;;;;;5146217;27;20055;-34
2021/04/14 12:27:46;;;;;;;5.45;4.32;;;19.40;61.10;;;;;;5146252;27;20031;-34
2021/04/14 12:30:13;;;;;;;4.32;3.70;;;19.40;61.10;;;;;;5146173;27;20064;-34
2021/04/14 12:32:40;;;;;;;5.57;4.30;;;19.30;61.00;;;;;;5146079;27;20019;-34
2021/04/14 12:35:07;;;;;;;4.80;4.23;;;19.30;61.00;;;;;;5146313;27;20031;-34
2021/04/14 12:37:33;;;;;;;5.63;4.60;;;19.30;61.00;;;;;;5138692;27;20071;-34
2021/04/14 12:40:00;;;;;;;6.32;4.30;;;19.40;61.10;;;;;;5132684;27;20027;-34
2021/04/14 12:42:27;;;;;;;5.22;4.32;;;19.30;61.00;;;;;;5130182;27;20032;-34
2021/04/14 12:44:54;;;;;;;5.32;4.72;;;19.30;60.90;;;;;;5110752;28;20042;-34
2021/04/14 12:47:22;;;;;;;5.32;4.53;;;19.40;61.10;;;;;;5125419;28;20028;-33
2021/04/14 12:49:49;;;;;;;5.32;4.80;;;19.30;60.90;;;;;;5106962;28;20136;-34
2021/04/14 12:52:25;;;;;;;5.13;4.40;;;19.30;60.90;;;;;;5128720;27;20024;-34
2021/04/14 12:54:53;;;;;;;4.75;4.25;;;19.30;60.90;;;;;;5127434;27;20107;-34
2021/04/14 12:57:28;;;;;;;5.78;4.50;;;19.40;61.00;;;;;;5110425;27;20049;-34
2021/04/14 13:00:03;;;;;;;4.70;4.05;;;19.30;61.00;;;;;;5110597;27;20027;-34
2021/04/14 13:02:40;;;;;;;5.00;4.50;;;19.30;60.80;;;;;;5145761;27;20023;-34
2021/04/14 13:05:17;;;;;;;4.93;4.15;;;19.30;60.90;;;;;;5110411;27;20027;-34